sensor_id;sensor_type;location;lat;lon;timestamp;P1;durP1;ratioP1;P2;durP2;ratioP2
16254;SDS011;8235;52.198;9.904;2023-02-10T00:00:12;45.70;;;22.53;;
16254;SDS011;8235;52.198;9.904;2023-02-10T00:02:39;42.23;;;22.07;;
16254;SDS011;8235;52.198;9.904;2023-02-10T00:05:06;40.37;;;21.93;;
16254;SDS011;8235;52.198;9.904;2023-02-10T00:07:33;48.43;;;23.70;;
16254;SDS011;8235;52.198;9.904;2023-02-10T00:09:59;46.77;;;23.87;;
16254;SDS011;8235;52.198;9.904;2023-02-10T00:12:26;51.20;;;22.97;;
16254;SDS011;8235;52.198;9.904;2023-02-10T00:15:01;43.00;;;22.87;;
16254;SDS011;8235;52.198;9.904;2023-02-10T00:17:29;47.83;;;23.53;;
16254;SDS011;8235;52.198;9.904;2023-02-10T00:19:55;50.73;;;23.27;;
16254;SDS011;8235;52.198;9.904;2023-02-10T00:22:21;46.47;;;23.73;;
16254;SDS011;8235;52.198;9.904;2023-02-10T00:24:48;47.27;;;23.63;;
16254;SDS011;8235;52.198;9.904;2023-02-10T00:27:14;44.53;;;23.93;;
16254;SDS011;8235;52.198;9.904;2023-02-10T00:29:45;45.77;;;23.13;;
16254;SDS011;8235;52.198;9.904;2023-02-10T00:32:13;50.83;;;25.67;;
16254;SDS011;8235;52.198;9.904;2023-02-10T00:34:43;50.17;;;24.20;;
16254;SDS011;8235;52.198;9.904;2023-02-10T00:37:13;51.30;;;24.47;;
16254;SDS011;8235;52.198;9.904;2023-02-10T00:39:39;50.80;;;24.33;;
16254;SDS011;8235;52.198;9.904;2023-02-10T00:42:06;49.63;;;24.27;;
16254;SDS011;8235;52.198;9.904;2023-02-10T00:44:32;42.77;;;23.60;;
16254;SDS011;8235;52.198;9.904;2023-02-10T00:46:58;55.50;;;23.83;;
16254;SDS011;8235;52.198;9.904;2023-02-10T00:49:25;49.17;;;25.80;;
16254;SDS011;8235;52.198;9.904;2023-02-10T00:51:53;52.90;;;24.53;;
16254;SDS011;8235;52.198;9.904;2023-02-10T00:54:19;49.97;;;24.00;;
16254;SDS011;8235;52.198;9.904;2023-02-10T00:56:45;52.70;;;24.27;;
16254;SDS011;8235;52.198;9.904;2023-02-10T00:59:12;50.83;;;23.70;;
16254;SDS011;8235;52.198;9.904;2023-02-10T01:01:40;48.37;;;24.20;;
16254;SDS011;8235;52.198;9.904;2023-02-10T01:04:07;47.57;;;26.03;;
16254;SDS011;8235;52.198;9.904;2023-02-10T01:09:33;55.80;;;26.10;;
16254;SDS011;8235;52.198;9.904;2023-02-10T01:11:59;52.53;;;25.80;;
16254;SDS011;8235;52.198;9.904;2023-02-10T01:14:26;56.13;;;25.33;;
16254;SDS011;8235;52.198;9.904;2023-02-10T01:16:52;48.40;;;25.30;;
16254;SDS011;8235;52.198;9.904;2023-02-10T01:19:19;45.57;;;24.60;;
16254;SDS011;8235;52.198;9.904;2023-02-10T01:21:45;44.17;;;25.33;;
16254;SDS011;8235;52.198;9.904;2023-02-10T01:24:12;45.40;;;24.97;;
16254;SDS011;8235;52.198;9.904;2023-02-10T01:26:40;50.37;;;23.63;;
16254;SDS011;8235;52.198;9.904;2023-02-10T01:29:07;49.00;;;25.37;;
16254;SDS011;8235;52.198;9.904;2023-02-10T01:31:33;52.63;;;25.40;;
16254;SDS011;8235;52.198;9.904;2023-02-10T01:34:00;50.57;;;25.57;;
16254;SDS011;8235;52.198;9.904;2023-02-10T01:36:26;61.40;;;25.93;;
16254;SDS011;8235;52.198;9.904;2023-02-10T01:38:53;55.70;;;26.83;;
16254;SDS011;8235;52.198;9.904;2023-02-10T01:41:20;52.83;;;27.43;;
16254;SDS011;8235;52.198;9.904;2023-02-10T01:43:54;58.00;;;25.20;;
16254;SDS011;8235;52.198;9.904;2023-02-10T01:46:25;53.37;;;26.33;;
16254;SDS011;8235;52.198;9.904;2023-02-10T01:48:53;49.50;;;25.50;;
16254;SDS011;8235;52.198;9.904;2023-02-10T01:51:22;54.90;;;26.37;;
16254;SDS011;8235;52.198;9.904;2023-02-10T01:53:55;52.33;;;25.50;;
16254;SDS011;8235;52.198;9.904;2023-02-10T01:56:21;51.87;;;25.30;;
16254;SDS011;8235;52.198;9.904;2023-02-10T01:58:48;56.33;;;26.60;;
16254;SDS011;8235;52.198;9.904;2023-02-10T02:01:16;58.07;;;26.87;;
16254;SDS011;8235;52.198;9.904;2023-02-10T02:03:43;53.63;;;25.90;;
16254;SDS011;8235;52.198;9.904;2023-02-10T02:06:10;53.70;;;27.17;;
16254;SDS011;8235;52.198;9.904;2023-02-10T02:08:36;51.40;;;27.13;;
16254;SDS011;8235;52.198;9.904;2023-02-10T02:11:07;55.23;;;27.63;;
16254;SDS011;8235;52.198;9.904;2023-02-10T02:13:46;53.17;;;27.37;;
16254;SDS011;8235;52.198;9.904;2023-02-10T02:16:26;59.57;;;28.63;;
16254;SDS011;8235;52.198;9.904;2023-02-10T02:19:02;51.13;;;26.57;;
16254;SDS011;8235;52.198;9.904;2023-02-10T02:21:48;54.50;;;25.03;;
16254;SDS011;8235;52.198;9.904;2023-02-10T02:24:45;56.93;;;26.30;;
16254;SDS011;8235;52.198;9.904;2023-02-10T02:27:31;59.87;;;28.43;;
16254;SDS011;8235;52.198;9.904;2023-02-10T02:33:30;53.43;;;27.77;;
16254;SDS011;8235;52.198;9.904;2023-02-10T02:36:01;55.07;;;27.97;;
16254;SDS011;8235;52.198;9.904;2023-02-10T02:38:36;57.33;;;26.53;;
16254;SDS011;8235;52.198;9.904;2023-02-10T02:41:03;62.30;;;26.33;;
16254;SDS011;8235;52.198;9.904;2023-02-10T02:43:30;50.73;;;26.07;;
16254;SDS011;8235;52.198;9.904;2023-02-10T02:45:58;54.83;;;26.17;;
16254;SDS011;8235;52.198;9.904;2023-02-10T02:48:35;54.17;;;26.00;;
16254;SDS011;8235;52.198;9.904;2023-02-10T02:51:09;52.40;;;24.97;;
16254;SDS011;8235;52.198;9.904;2023-02-10T02:53:44;53.70;;;24.63;;
16254;SDS011;8235;52.198;9.904;2023-02-10T02:56:23;58.60;;;25.97;;
16254;SDS011;8235;52.198;9.904;2023-02-10T02:59:18;58.43;;;26.37;;
16254;SDS011;8235;52.198;9.904;2023-02-10T03:01:50;50.93;;;25.57;;
16254;SDS011;8235;52.198;9.904;2023-02-10T03:04:21;59.23;;;26.90;;
16254;SDS011;8235;52.198;9.904;2023-02-10T03:06:52;54.30;;;27.30;;
16254;SDS011;8235;52.198;9.904;2023-02-10T03:09:19;58.63;;;26.60;;
16254;SDS011;8235;52.198;9.904;2023-02-10T03:11:46;55.17;;;26.90;;
16254;SDS011;8235;52.198;9.904;2023-02-10T03:14:13;54.80;;;27.77;;
16254;SDS011;8235;52.198;9.904;2023-02-10T03:16:39;51.00;;;26.07;;
16254;SDS011;8235;52.198;9.904;2023-02-10T03:19:06;53.50;;;25.60;;
16254;SDS011;8235;52.198;9.904;2023-02-10T03:21:33;54.83;;;26.63;;
16254;SDS011;8235;52.198;9.904;2023-02-10T03:24:00;57.67;;;27.23;;
16254;SDS011;8235;52.198;9.904;2023-02-10T03:26:26;57.83;;;26.03;;
16254;SDS011;8235;52.198;9.904;2023-02-10T03:28:53;54.63;;;27.00;;
16254;SDS011;8235;52.198;9.904;2023-02-10T03:31:20;61.90;;;28.53;;
16254;SDS011;8235;52.198;9.904;2023-02-10T03:33:47;60.67;;;28.83;;
16254;SDS011;8235;52.198;9.904;2023-02-10T03:36:13;64.37;;;27.93;;
16254;SDS011;8235;52.198;9.904;2023-02-10T03:38:41;59.53;;;28.00;;
16254;SDS011;8235;52.198;9.904;2023-02-10T03:41:07;60.63;;;26.80;;
16254;SDS011;8235;52.198;9.904;2023-02-10T03:43:34;55.40;;;26.53;;
16254;SDS011;8235;52.198;9.904;2023-02-10T03:46:00;53.80;;;25.87;;
16254;SDS011;8235;52.198;9.904;2023-02-10T03:48:27;61.40;;;27.93;;
16254;SDS011;8235;52.198;9.904;2023-02-10T03:50:56;55.87;;;26.20;;
16254;SDS011;8235;52.198;9.904;2023-02-10T03:53:23;54.23;;;26.40;;
16254;SDS011;8235;52.198;9.904;2023-02-10T03:55:50;60.20;;;27.87;;
16254;SDS011;8235;52.198;9.904;2023-02-10T03:58:17;50.00;;;26.63;;
16254;SDS011;8235;52.198;9.904;2023-02-10T04:00:44;57.13;;;26.03;;
16254;SDS011;8235;52.198;9.904;2023-02-10T04:03:10;51.97;;;27.27;;
16254;SDS011;8235;52.198;9.904;2023-02-10T04:05:37;48.70;;;24.60;;
16254;SDS011;8235;52.198;9.904;2023-02-10T04:08:03;49.53;;;25.13;;
16254;SDS011;8235;52.198;9.904;2023-02-10T04:10:30;55.33;;;26.00;;
16254;SDS011;8235;52.198;9.904;2023-02-10T04:12:58;52.33;;;27.47;;
16254;SDS011;8235;52.198;9.904;2023-02-10T04:15:24;57.70;;;26.33;;
16254;SDS011;8235;52.198;9.904;2023-02-10T04:17:51;52.70;;;25.87;;
16254;SDS011;8235;52.198;9.904;2023-02-10T04:20:18;59.33;;;26.57;;
16254;SDS011;8235;52.198;9.904;2023-02-10T04:22:44;47.23;;;25.17;;
16254;SDS011;8235;52.198;9.904;2023-02-10T04:25:11;48.30;;;24.40;;
16254;SDS011;8235;52.198;9.904;2023-02-10T04:27:37;51.00;;;25.00;;
16254;SDS011;8235;52.198;9.904;2023-02-10T04:30:06;48.77;;;24.57;;
16254;SDS011;8235;52.198;9.904;2023-02-10T04:32:33;43.00;;;23.47;;
16254;SDS011;8235;52.198;9.904;2023-02-10T04:34:59;54.10;;;24.30;;
16254;SDS011;8235;52.198;9.904;2023-02-10T04:37:26;45.30;;;22.83;;
16254;SDS011;8235;52.198;9.904;2023-02-10T04:39:52;48.00;;;23.63;;
16254;SDS011;8235;52.198;9.904;2023-02-10T04:42:19;44.13;;;23.10;;
16254;SDS011;8235;52.198;9.904;2023-02-10T04:44:54;49.43;;;24.30;;
16254;SDS011;8235;52.198;9.904;2023-02-10T04:47:22;49.70;;;23.53;;
16254;SDS011;8235;52.198;9.904;2023-02-10T04:49:49;41.13;;;22.60;;
16254;SDS011;8235;52.198;9.904;2023-02-10T04:52:16;45.07;;;23.57;;
16254;SDS011;8235;52.198;9.904;2023-02-10T04:54:42;40.17;;;21.20;;
16254;SDS011;8235;52.198;9.904;2023-02-10T04:57:09;39.23;;;22.13;;
16254;SDS011;8235;52.198;9.904;2023-02-10T04:59:35;42.93;;;22.30;;
16254;SDS011;8235;52.198;9.904;2023-02-10T05:02:02;40.67;;;21.47;;
16254;SDS011;8235;52.198;9.904;2023-02-10T05:04:30;41.50;;;22.03;;
16254;SDS011;8235;52.198;9.904;2023-02-10T05:06:56;41.63;;;22.17;;
16254;SDS011;8235;52.198;9.904;2023-02-10T05:09:23;38.13;;;21.17;;
16254;SDS011;8235;52.198;9.904;2023-02-10T05:11:51;45.40;;;22.70;;
16254;SDS011;8235;52.198;9.904;2023-02-10T05:14:18;51.20;;;21.63;;
16254;SDS011;8235;52.198;9.904;2023-02-10T05:16:44;42.87;;;21.83;;
16254;SDS011;8235;52.198;9.904;2023-02-10T05:19:11;41.20;;;22.27;;
16254;SDS011;8235;52.198;9.904;2023-02-10T05:21:39;44.33;;;22.47;;
16254;SDS011;8235;52.198;9.904;2023-02-10T05:24:06;40.97;;;23.07;;
16254;SDS011;8235;52.198;9.904;2023-02-10T05:26:32;44.37;;;21.40;;
16254;SDS011;8235;52.198;9.904;2023-02-10T05:28:59;44.40;;;23.43;;
16254;SDS011;8235;52.198;9.904;2023-02-10T05:31:25;46.13;;;23.03;;
16254;SDS011;8235;52.198;9.904;2023-02-10T05:33:52;45.40;;;21.80;;
16254;SDS011;8235;52.198;9.904;2023-02-10T05:36:18;39.27;;;21.17;;
16254;SDS011;8235;52.198;9.904;2023-02-10T05:38:46;40.77;;;21.07;;
16254;SDS011;8235;52.198;9.904;2023-02-10T05:41:27;37.77;;;20.47;;
16254;SDS011;8235;52.198;9.904;2023-02-10T05:43:53;38.53;;;20.07;;
16254;SDS011;8235;52.198;9.904;2023-02-10T05:46:19;41.07;;;20.60;;
16254;SDS011;8235;52.198;9.904;2023-02-10T05:48:46;40.50;;;21.13;;
16254;SDS011;8235;52.198;9.904;2023-02-10T05:51:12;42.30;;;19.60;;
16254;SDS011;8235;52.198;9.904;2023-02-10T05:53:39;44.07;;;21.30;;
16254;SDS011;8235;52.198;9.904;2023-02-10T05:56:07;42.90;;;21.50;;
16254;SDS011;8235;52.198;9.904;2023-02-10T05:58:33;39.40;;;20.97;;
16254;SDS011;8235;52.198;9.904;2023-02-10T06:01:00;48.00;;;24.03;;
16254;SDS011;8235;52.198;9.904;2023-02-10T06:03:31;41.60;;;21.60;;
16254;SDS011;8235;52.198;9.904;2023-02-10T06:05:57;46.00;;;21.77;;
16254;SDS011;8235;52.198;9.904;2023-02-10T06:08:26;43.00;;;22.90;;
16254;SDS011;8235;52.198;9.904;2023-02-10T06:10:53;47.33;;;22.27;;
16254;SDS011;8235;52.198;9.904;2023-02-10T06:13:20;40.00;;;20.97;;
16254;SDS011;8235;52.198;9.904;2023-02-10T06:15:47;46.03;;;21.77;;
16254;SDS011;8235;52.198;9.904;2023-02-10T06:18:13;47.87;;;23.73;;
16254;SDS011;8235;52.198;9.904;2023-02-10T06:20:40;50.67;;;23.60;;
16254;SDS011;8235;52.198;9.904;2023-02-10T06:23:06;52.70;;;24.27;;
16254;SDS011;8235;52.198;9.904;2023-02-10T06:25:33;47.93;;;23.77;;
16254;SDS011;8235;52.198;9.904;2023-02-10T06:28:00;44.90;;;23.73;;
16254;SDS011;8235;52.198;9.904;2023-02-10T06:30:28;51.27;;;23.83;;
16254;SDS011;8235;52.198;9.904;2023-02-10T06:32:55;51.43;;;25.17;;
16254;SDS011;8235;52.198;9.904;2023-02-10T06:35:21;46.40;;;23.47;;
16254;SDS011;8235;52.198;9.904;2023-02-10T06:37:48;43.07;;;22.07;;
16254;SDS011;8235;52.198;9.904;2023-02-10T06:40:14;47.37;;;22.90;;
16254;SDS011;8235;52.198;9.904;2023-02-10T06:42:41;39.30;;;21.33;;
16254;SDS011;8235;52.198;9.904;2023-02-10T06:45:07;45.17;;;24.07;;
16254;SDS011;8235;52.198;9.904;2023-02-10T06:47:35;50.63;;;24.17;;
16254;SDS011;8235;52.198;9.904;2023-02-10T06:50:03;47.27;;;22.67;;
16254;SDS011;8235;52.198;9.904;2023-02-10T06:52:31;53.90;;;23.23;;
16254;SDS011;8235;52.198;9.904;2023-02-10T06:55:00;45.43;;;24.23;;
16254;SDS011;8235;52.198;9.904;2023-02-10T06:57:26;50.37;;;24.60;;
16254;SDS011;8235;52.198;9.904;2023-02-10T06:59:53;50.37;;;25.13;;
16254;SDS011;8235;52.198;9.904;2023-02-10T07:02:19;43.23;;;22.57;;
16254;SDS011;8235;52.198;9.904;2023-02-10T07:04:47;53.67;;;23.30;;
16254;SDS011;8235;52.198;9.904;2023-02-10T07:07:13;60.37;;;23.70;;
16254;SDS011;8235;52.198;9.904;2023-02-10T07:09:40;50.07;;;23.67;;
16254;SDS011;8235;52.198;9.904;2023-02-10T07:12:06;47.17;;;23.20;;
16254;SDS011;8235;52.198;9.904;2023-02-10T07:14:33;53.30;;;24.43;;
16254;SDS011;8235;52.198;9.904;2023-02-10T07:16:59;44.90;;;22.87;;
16254;SDS011;8235;52.198;9.904;2023-02-10T07:19:26;49.70;;;23.53;;
16254;SDS011;8235;52.198;9.904;2023-02-10T07:21:54;46.07;;;23.37;;
16254;SDS011;8235;52.198;9.904;2023-02-10T07:24:20;48.73;;;23.70;;
16254;SDS011;8235;52.198;9.904;2023-02-10T07:26:47;53.87;;;25.00;;
16254;SDS011;8235;52.198;9.904;2023-02-10T07:29:13;50.23;;;23.87;;
16254;SDS011;8235;52.198;9.904;2023-02-10T07:31:39;49.07;;;22.90;;
16254;SDS011;8235;52.198;9.904;2023-02-10T07:34:06;49.80;;;25.30;;
16254;SDS011;8235;52.198;9.904;2023-02-10T07:36:32;49.97;;;23.87;;
16254;SDS011;8235;52.198;9.904;2023-02-10T07:39:00;53.50;;;25.90;;
16254;SDS011;8235;52.198;9.904;2023-02-10T07:41:27;63.27;;;28.47;;
16254;SDS011;8235;52.198;9.904;2023-02-10T07:43:53;60.83;;;25.17;;
16254;SDS011;8235;52.198;9.904;2023-02-10T07:46:19;53.10;;;26.10;;
16254;SDS011;8235;52.198;9.904;2023-02-10T07:48:46;51.80;;;26.03;;
16254;SDS011;8235;52.198;9.904;2023-02-10T07:51:12;55.30;;;24.43;;
16254;SDS011;8235;52.198;9.904;2023-02-10T07:53:39;49.43;;;23.30;;
16254;SDS011;8235;52.198;9.904;2023-02-10T07:56:09;60.67;;;27.50;;
16254;SDS011;8235;52.198;9.904;2023-02-10T07:58:35;55.00;;;25.53;;
16254;SDS011;8235;52.198;9.904;2023-02-10T08:01:05;57.80;;;25.97;;
16254;SDS011;8235;52.198;9.904;2023-02-10T08:03:32;57.53;;;26.93;;
16254;SDS011;8235;52.198;9.904;2023-02-10T08:05:58;57.53;;;23.57;;
16254;SDS011;8235;52.198;9.904;2023-02-10T08:08:25;55.07;;;25.67;;
16254;SDS011;8235;52.198;9.904;2023-02-10T08:10:51;49.00;;;24.33;;
16254;SDS011;8235;52.198;9.904;2023-02-10T08:13:19;53.20;;;26.03;;
16254;SDS011;8235;52.198;9.904;2023-02-10T08:15:45;52.40;;;24.83;;
16254;SDS011;8235;52.198;9.904;2023-02-10T08:18:12;55.40;;;24.60;;
16254;SDS011;8235;52.198;9.904;2023-02-10T08:20:39;59.30;;;27.33;;
16254;SDS011;8235;52.198;9.904;2023-02-10T08:23:06;58.83;;;24.37;;
16254;SDS011;8235;52.198;9.904;2023-02-10T08:25:33;66.27;;;26.80;;
16254;SDS011;8235;52.198;9.904;2023-02-10T08:27:59;58.57;;;26.43;;
16254;SDS011;8235;52.198;9.904;2023-02-10T08:30:27;55.40;;;26.93;;
16254;SDS011;8235;52.198;9.904;2023-02-10T08:32:53;56.10;;;26.60;;
16254;SDS011;8235;52.198;9.904;2023-02-10T08:35:20;56.37;;;25.67;;
16254;SDS011;8235;52.198;9.904;2023-02-10T08:37:46;61.47;;;29.13;;
16254;SDS011;8235;52.198;9.904;2023-02-10T08:40:13;59.93;;;26.43;;
16254;SDS011;8235;52.198;9.904;2023-02-10T08:42:39;56.20;;;26.63;;
16254;SDS011;8235;52.198;9.904;2023-02-10T08:45:06;53.53;;;26.90;;
16254;SDS011;8235;52.198;9.904;2023-02-10T08:47:34;57.30;;;25.07;;
16254;SDS011;8235;52.198;9.904;2023-02-10T08:50:01;56.93;;;26.20;;
16254;SDS011;8235;52.198;9.904;2023-02-10T08:52:29;65.83;;;27.23;;
16254;SDS011;8235;52.198;9.904;2023-02-10T08:54:55;62.60;;;27.20;;
16254;SDS011;8235;52.198;9.904;2023-02-10T08:57:24;61.80;;;27.53;;
16254;SDS011;8235;52.198;9.904;2023-02-10T08:59:51;58.40;;;27.70;;
16254;SDS011;8235;52.198;9.904;2023-02-10T09:02:17;63.63;;;28.77;;
16254;SDS011;8235;52.198;9.904;2023-02-10T09:04:45;66.37;;;28.50;;
16254;SDS011;8235;52.198;9.904;2023-02-10T09:07:12;60.40;;;29.50;;
16254;SDS011;8235;52.198;9.904;2023-02-10T09:09:39;66.43;;;29.57;;
16254;SDS011;8235;52.198;9.904;2023-02-10T09:12:07;70.77;;;30.30;;
16254;SDS011;8235;52.198;9.904;2023-02-10T09:14:36;64.63;;;29.37;;
16254;SDS011;8235;52.198;9.904;2023-02-10T09:17:03;68.67;;;30.40;;
16254;SDS011;8235;52.198;9.904;2023-02-10T09:19:30;73.63;;;32.20;;
16254;SDS011;8235;52.198;9.904;2023-02-10T09:21:57;67.67;;;29.27;;
16254;SDS011;8235;52.198;9.904;2023-02-10T09:24:24;73.80;;;32.50;;
16254;SDS011;8235;52.198;9.904;2023-02-10T09:26:50;63.23;;;29.63;;
16254;SDS011;8235;52.198;9.904;2023-02-10T09:29:17;69.97;;;32.20;;
16254;SDS011;8235;52.198;9.904;2023-02-10T09:31:44;67.43;;;30.13;;
16254;SDS011;8235;52.198;9.904;2023-02-10T09:34:10;66.40;;;30.33;;
16254;SDS011;8235;52.198;9.904;2023-02-10T09:36:37;70.57;;;29.53;;
16254;SDS011;8235;52.198;9.904;2023-02-10T09:39:05;71.33;;;29.77;;
16254;SDS011;8235;52.198;9.904;2023-02-10T09:41:38;66.90;;;28.97;;
16254;SDS011;8235;52.198;9.904;2023-02-10T09:44:11;72.53;;;31.73;;
16254;SDS011;8235;52.198;9.904;2023-02-10T09:46:46;67.67;;;29.90;;
16254;SDS011;8235;52.198;9.904;2023-02-10T09:52:17;76.73;;;32.07;;
16254;SDS011;8235;52.198;9.904;2023-02-10T09:54:53;67.07;;;29.90;;
16254;SDS011;8235;52.198;9.904;2023-02-10T09:57:25;67.83;;;30.63;;
16254;SDS011;8235;52.198;9.904;2023-02-10T09:59:58;74.70;;;31.03;;
16254;SDS011;8235;52.198;9.904;2023-02-10T10:02:28;64.77;;;31.30;;
16254;SDS011;8235;52.198;9.904;2023-02-10T10:04:58;71.47;;;30.67;;
16254;SDS011;8235;52.198;9.904;2023-02-10T10:07:28;68.93;;;30.67;;
16254;SDS011;8235;52.198;9.904;2023-02-10T10:10:02;72.07;;;32.30;;
16254;SDS011;8235;52.198;9.904;2023-02-10T10:12:38;69.73;;;31.53;;
16254;SDS011;8235;52.198;9.904;2023-02-10T10:15:06;72.20;;;35.30;;
16254;SDS011;8235;52.198;9.904;2023-02-10T10:17:44;68.63;;;32.17;;
16254;SDS011;8235;52.198;9.904;2023-02-10T10:20:29;74.17;;;31.53;;
16254;SDS011;8235;52.198;9.904;2023-02-10T10:23:11;75.70;;;32.10;;
16254;SDS011;8235;52.198;9.904;2023-02-10T10:25:58;74.07;;;32.27;;
16254;SDS011;8235;52.198;9.904;2023-02-10T10:28:33;79.13;;;31.00;;
16254;SDS011;8235;52.198;9.904;2023-02-10T10:31:13;73.83;;;33.27;;
16254;SDS011;8235;52.198;9.904;2023-02-10T10:33:43;67.67;;;29.87;;
16254;SDS011;8235;52.198;9.904;2023-02-10T10:36:15;72.47;;;30.50;;
16254;SDS011;8235;52.198;9.904;2023-02-10T10:38:44;72.13;;;31.43;;
16254;SDS011;8235;52.198;9.904;2023-02-10T10:41:15;78.17;;;31.47;;
16254;SDS011;8235;52.198;9.904;2023-02-10T10:43:44;75.17;;;30.93;;
16254;SDS011;8235;52.198;9.904;2023-02-10T10:46:12;67.90;;;29.67;;
16254;SDS011;8235;52.198;9.904;2023-02-10T10:48:44;75.37;;;31.73;;
16254;SDS011;8235;52.198;9.904;2023-02-10T10:51:11;72.23;;;30.33;;
16254;SDS011;8235;52.198;9.904;2023-02-10T10:53:39;66.63;;;28.67;;
16254;SDS011;8235;52.198;9.904;2023-02-10T10:56:11;67.00;;;29.47;;
16254;SDS011;8235;52.198;9.904;2023-02-10T10:58:44;64.03;;;26.10;;
16254;SDS011;8235;52.198;9.904;2023-02-10T11:01:12;67.07;;;28.97;;
16254;SDS011;8235;52.198;9.904;2023-02-10T11:03:40;64.20;;;27.83;;
16254;SDS011;8235;52.198;9.904;2023-02-10T11:06:10;63.23;;;29.00;;
16254;SDS011;8235;52.198;9.904;2023-02-10T11:08:40;69.53;;;27.97;;
16254;SDS011;8235;52.198;9.904;2023-02-10T11:11:11;57.07;;;25.97;;
16254;SDS011;8235;52.198;9.904;2023-02-10T11:13:40;58.07;;;27.67;;
16254;SDS011;8235;52.198;9.904;2023-02-10T11:16:19;63.77;;;29.33;;
16254;SDS011;8235;52.198;9.904;2023-02-10T11:18:53;58.53;;;27.67;;
16254;SDS011;8235;52.198;9.904;2023-02-10T11:21:20;59.70;;;27.83;;
16254;SDS011;8235;52.198;9.904;2023-02-10T11:23:58;65.97;;;27.93;;
16254;SDS011;8235;52.198;9.904;2023-02-10T11:26:25;64.40;;;28.30;;
16254;SDS011;8235;52.198;9.904;2023-02-10T11:28:54;65.87;;;28.03;;
16254;SDS011;8235;52.198;9.904;2023-02-10T11:31:27;58.47;;;25.50;;
16254;SDS011;8235;52.198;9.904;2023-02-10T11:33:58;58.33;;;26.20;;
16254;SDS011;8235;52.198;9.904;2023-02-10T11:36:30;58.70;;;22.60;;
16254;SDS011;8235;52.198;9.904;2023-02-10T11:39:02;63.93;;;25.40;;
16254;SDS011;8235;52.198;9.904;2023-02-10T11:41:31;63.63;;;24.80;;
16254;SDS011;8235;52.198;9.904;2023-02-10T11:44:01;50.77;;;23.00;;
16254;SDS011;8235;52.198;9.904;2023-02-10T11:46:31;61.07;;;25.03;;
16254;SDS011;8235;52.198;9.904;2023-02-10T11:48:58;58.77;;;24.40;;
16254;SDS011;8235;52.198;9.904;2023-02-10T11:51:26;50.17;;;21.77;;
16254;SDS011;8235;52.198;9.904;2023-02-10T11:53:53;60.47;;;25.90;;
16254;SDS011;8235;52.198;9.904;2023-02-10T11:56:22;62.00;;;31.20;;
16254;SDS011;8235;52.198;9.904;2023-02-10T11:59:07;59.60;;;28.07;;
16254;SDS011;8235;52.198;9.904;2023-02-10T12:01:58;52.17;;;25.10;;
16254;SDS011;8235;52.198;9.904;2023-02-10T12:04:42;57.13;;;26.03;;
16254;SDS011;8235;52.198;9.904;2023-02-10T12:07:29;52.63;;;24.67;;
16254;SDS011;8235;52.198;9.904;2023-02-10T12:10:08;60.90;;;27.00;;
16254;SDS011;8235;52.198;9.904;2023-02-10T12:12:44;58.63;;;27.40;;
16254;SDS011;8235;52.198;9.904;2023-02-10T12:15:21;55.87;;;25.63;;
16254;SDS011;8235;52.198;9.904;2023-02-10T12:18:03;49.43;;;23.80;;
16254;SDS011;8235;52.198;9.904;2023-02-10T12:20:49;57.47;;;26.50;;
16254;SDS011;8235;52.198;9.904;2023-02-10T12:23:33;58.00;;;25.83;;
16254;SDS011;8235;52.198;9.904;2023-02-10T12:26:10;52.47;;;22.17;;
16254;SDS011;8235;52.198;9.904;2023-02-10T12:28:53;56.53;;;27.63;;
16254;SDS011;8235;52.198;9.904;2023-02-10T12:31:30;52.17;;;24.57;;
16254;SDS011;8235;52.198;9.904;2023-02-10T12:34:08;58.47;;;27.20;;
16254;SDS011;8235;52.198;9.904;2023-02-10T12:36:54;63.30;;;26.97;;
16254;SDS011;8235;52.198;9.904;2023-02-10T12:39:31;70.77;;;30.37;;
16254;SDS011;8235;52.198;9.904;2023-02-10T12:42:06;63.27;;;29.67;;
16254;SDS011;8235;52.198;9.904;2023-02-10T12:44:50;58.00;;;28.60;;
16254;SDS011;8235;52.198;9.904;2023-02-10T12:47:28;55.97;;;24.73;;
16254;SDS011;8235;52.198;9.904;2023-02-10T12:50:07;45.93;;;22.63;;
16254;SDS011;8235;52.198;9.904;2023-02-10T12:52:53;43.67;;;22.67;;
16254;SDS011;8235;52.198;9.904;2023-02-10T12:55:25;40.23;;;21.13;;
16254;SDS011;8235;52.198;9.904;2023-02-10T12:58:02;45.40;;;22.67;;
16254;SDS011;8235;52.198;9.904;2023-02-10T13:00:33;46.10;;;21.90;;
16254;SDS011;8235;52.198;9.904;2023-02-10T13:03:05;41.90;;;21.23;;
16254;SDS011;8235;52.198;9.904;2023-02-10T13:05:39;40.87;;;20.77;;
16254;SDS011;8235;52.198;9.904;2023-02-10T13:08:10;38.77;;;19.33;;
16254;SDS011;8235;52.198;9.904;2023-02-10T13:10:42;33.90;;;17.43;;
16254;SDS011;8235;52.198;9.904;2023-02-10T13:13:12;40.17;;;19.70;;
16254;SDS011;8235;52.198;9.904;2023-02-10T13:15:43;36.40;;;18.77;;
16254;SDS011;8235;52.198;9.904;2023-02-10T13:18:16;37.57;;;17.73;;
16254;SDS011;8235;52.198;9.904;2023-02-10T13:20:49;37.47;;;17.77;;
16254;SDS011;8235;52.198;9.904;2023-02-10T13:23:21;38.83;;;18.50;;
16254;SDS011;8235;52.198;9.904;2023-02-10T13:28:57;33.67;;;16.50;;
16254;SDS011;8235;52.198;9.904;2023-02-10T13:31:35;31.27;;;17.33;;
16254;SDS011;8235;52.198;9.904;2023-02-10T13:34:13;31.97;;;16.83;;
16254;SDS011;8235;52.198;9.904;2023-02-10T13:36:46;30.97;;;16.07;;
16254;SDS011;8235;52.198;9.904;2023-02-10T13:39:18;34.50;;;16.43;;
16254;SDS011;8235;52.198;9.904;2023-02-10T13:41:47;32.97;;;15.70;;
16254;SDS011;8235;52.198;9.904;2023-02-10T13:44:16;33.07;;;17.50;;
16254;SDS011;8235;52.198;9.904;2023-02-10T13:46:48;31.80;;;16.67;;
16254;SDS011;8235;52.198;9.904;2023-02-10T13:49:19;36.67;;;17.17;;
16254;SDS011;8235;52.198;9.904;2023-02-10T13:51:49;36.83;;;17.67;;
16254;SDS011;8235;52.198;9.904;2023-02-10T13:54:25;32.23;;;16.97;;
16254;SDS011;8235;52.198;9.904;2023-02-10T13:56:54;29.23;;;15.93;;
16254;SDS011;8235;52.198;9.904;2023-02-10T13:59:26;32.10;;;16.80;;
16254;SDS011;8235;52.198;9.904;2023-02-10T14:04:42;37.60;;;16.60;;
16254;SDS011;8235;52.198;9.904;2023-02-10T14:07:17;25.30;;;14.67;;
16254;SDS011;8235;52.198;9.904;2023-02-10T14:12:54;30.00;;;15.70;;
16254;SDS011;8235;52.198;9.904;2023-02-10T14:15:22;29.07;;;14.33;;
16254;SDS011;8235;52.198;9.904;2023-02-10T14:17:55;26.00;;;14.63;;
16254;SDS011;8235;52.198;9.904;2023-02-10T14:20:27;24.70;;;13.40;;
16254;SDS011;8235;52.198;9.904;2023-02-10T14:22:58;30.13;;;13.93;;
16254;SDS011;8235;52.198;9.904;2023-02-10T14:25:28;26.40;;;14.40;;
16254;SDS011;8235;52.198;9.904;2023-02-10T14:27:58;26.80;;;14.33;;
16254;SDS011;8235;52.198;9.904;2023-02-10T14:30:26;30.80;;;14.40;;
16254;SDS011;8235;52.198;9.904;2023-02-10T14:32:57;25.27;;;13.23;;
16254;SDS011;8235;52.198;9.904;2023-02-10T14:35:25;25.87;;;12.57;;
16254;SDS011;8235;52.198;9.904;2023-02-10T14:37:55;21.27;;;11.47;;
16254;SDS011;8235;52.198;9.904;2023-02-10T14:40:25;23.03;;;13.60;;
16254;SDS011;8235;52.198;9.904;2023-02-10T14:42:53;22.50;;;12.37;;
16254;SDS011;8235;52.198;9.904;2023-02-10T14:45:21;23.97;;;12.07;;
16254;SDS011;8235;52.198;9.904;2023-02-10T14:47:50;26.97;;;13.13;;
16254;SDS011;8235;52.198;9.904;2023-02-10T14:50:22;21.80;;;12.53;;
16254;SDS011;8235;52.198;9.904;2023-02-10T14:52:50;27.00;;;13.10;;
16254;SDS011;8235;52.198;9.904;2023-02-10T14:55:22;23.77;;;13.37;;
16254;SDS011;8235;52.198;9.904;2023-02-10T14:57:50;25.10;;;12.90;;
16254;SDS011;8235;52.198;9.904;2023-02-10T15:00:17;27.97;;;13.20;;
16254;SDS011;8235;52.198;9.904;2023-02-10T15:02:45;25.23;;;13.23;;
16254;SDS011;8235;52.198;9.904;2023-02-10T15:05:16;22.97;;;13.73;;